sensor_id;sensor_type;location;lat;lon;timestamp;P1;durP1;ratioP1;P2;durP2;ratioP2
76995;SDS011;65929;49.062;10.338;2023-05-02T00:00:41;9.05;;;5.32;;
76995;SDS011;65929;49.062;10.338;2023-05-02T00:01:44;8.27;;;5.10;;
76995;SDS011;65929;49.062;10.338;2023-05-02T00:02:45;7.05;;;5.25;;
76995;SDS011;65929;49.062;10.338;2023-05-02T00:03:47;6.40;;;4.60;;
76995;SDS011;65929;49.062;10.338;2023-05-02T00:04:48;7.80;;;4.82;;
76995;SDS011;65929;49.062;10.338;2023-05-02T00:05:50;7.35;;;5.13;;
76995;SDS011;65929;49.062;10.338;2023-05-02T00:06:51;7.60;;;5.68;;
76995;SDS011;65929;49.062;10.338;2023-05-02T00:07:53;11.55;;;5.30;;
76995;SDS011;65929;49.062;10.338;2023-05-02T00:08:54;7.13;;;5.32;;
76995;SDS011;65929;49.062;10.338;2023-05-02T00:09:55;6.88;;;5.50;;
76995;SDS011;65929;49.062;10.338;2023-05-02T00:10:56;6.78;;;5.28;;
76995;SDS011;65929;49.062;10.338;2023-05-02T00:11:57;8.02;;;4.97;;
76995;SDS011;65929;49.062;10.338;2023-05-02T00:12:58;11.18;;;5.78;;
76995;SDS011;65929;49.062;10.338;2023-05-02T00:13:59;7.88;;;5.53;;
76995;SDS011;65929;49.062;10.338;2023-05-02T00:15:04;10.63;;;5.72;;
76995;SDS011;65929;49.062;10.338;2023-05-02T00:16:05;8.30;;;5.38;;
76995;SDS011;65929;49.062;10.338;2023-05-02T00:17:06;8.82;;;5.25;;
76995;SDS011;65929;49.062;10.338;2023-05-02T00:18:07;6.80;;;5.20;;
76995;SDS011;65929;49.062;10.338;2023-05-02T00:19:09;8.82;;;5.15;;
76995;SDS011;65929;49.062;10.338;2023-05-02T00:20:10;7.50;;;5.18;;
76995;SDS011;65929;49.062;10.338;2023-05-02T00:21:13;9.82;;;5.15;;
76995;SDS011;65929;49.062;10.338;2023-05-02T00:22:14;9.73;;;5.10;;
76995;SDS011;65929;49.062;10.338;2023-05-02T00:23:15;7.93;;;5.15;;
76995;SDS011;65929;49.062;10.338;2023-05-02T00:24:16;8.07;;;5.72;;
76995;SDS011;65929;49.062;10.338;2023-05-02T00:25:17;8.93;;;5.90;;
76995;SDS011;65929;49.062;10.338;2023-05-02T00:26:18;7.78;;;5.40;;
76995;SDS011;65929;49.062;10.338;2023-05-02T00:27:20;7.30;;;5.10;;
76995;SDS011;65929;49.062;10.338;2023-05-02T00:28:21;8.70;;;5.78;;
76995;SDS011;65929;49.062;10.338;2023-05-02T00:29:22;9.23;;;5.47;;
76995;SDS011;65929;49.062;10.338;2023-05-02T00:30:23;7.85;;;5.13;;
76995;SDS011;65929;49.062;10.338;2023-05-02T00:31:24;9.95;;;5.53;;
76995;SDS011;65929;49.062;10.338;2023-05-02T00:32:25;9.77;;;5.55;;
76995;SDS011;65929;49.062;10.338;2023-05-02T00:33:26;7.90;;;5.10;;
76995;SDS011;65929;49.062;10.338;2023-05-02T00:34:28;9.57;;;5.72;;
76995;SDS011;65929;49.062;10.338;2023-05-02T00:35:29;9.13;;;5.63;;
76995;SDS011;65929;49.062;10.338;2023-05-02T00:36:34;9.30;;;5.68;;
76995;SDS011;65929;49.062;10.338;2023-05-02T00:37:35;7.63;;;4.82;;
76995;SDS011;65929;49.062;10.338;2023-05-02T00:38:36;10.00;;;6.10;;
76995;SDS011;65929;49.062;10.338;2023-05-02T00:39:37;8.57;;;5.88;;
76995;SDS011;65929;49.062;10.338;2023-05-02T00:40:44;10.18;;;5.88;;
76995;SDS011;65929;49.062;10.338;2023-05-02T00:41:54;8.77;;;5.35;;
76995;SDS011;65929;49.062;10.338;2023-05-02T00:42:56;8.43;;;5.50;;
76995;SDS011;65929;49.062;10.338;2023-05-02T00:43:57;8.75;;;5.20;;
76995;SDS011;65929;49.062;10.338;2023-05-02T00:44:58;7.57;;;5.20;;
76995;SDS011;65929;49.062;10.338;2023-05-02T00:45:59;8.25;;;5.60;;
76995;SDS011;65929;49.062;10.338;2023-05-02T00:47:00;9.40;;;6.15;;
76995;SDS011;65929;49.062;10.338;2023-05-02T00:48:01;9.55;;;5.43;;
76995;SDS011;65929;49.062;10.338;2023-05-02T00:49:02;9.52;;;5.80;;
76995;SDS011;65929;49.062;10.338;2023-05-02T00:50:04;8.45;;;5.30;;
76995;SDS011;65929;49.062;10.338;2023-05-02T00:51:06;8.82;;;5.60;;
76995;SDS011;65929;49.062;10.338;2023-05-02T00:52:12;8.70;;;5.28;;
76995;SDS011;65929;49.062;10.338;2023-05-02T00:53:13;7.85;;;5.65;;
76995;SDS011;65929;49.062;10.338;2023-05-02T00:54:14;8.23;;;5.63;;
76995;SDS011;65929;49.062;10.338;2023-05-02T00:55:16;7.97;;;5.20;;
76995;SDS011;65929;49.062;10.338;2023-05-02T00:56:17;8.85;;;5.32;;
76995;SDS011;65929;49.062;10.338;2023-05-02T00:57:18;7.50;;;5.10;;
76995;SDS011;65929;49.062;10.338;2023-05-02T00:58:19;8.20;;;5.45;;
76995;SDS011;65929;49.062;10.338;2023-05-02T00:59:23;7.70;;;5.25;;
76995;SDS011;65929;49.062;10.338;2023-05-02T01:00:29;8.63;;;5.40;;
76995;SDS011;65929;49.062;10.338;2023-05-02T01:01:41;7.72;;;5.28;;
76995;SDS011;65929;49.062;10.338;2023-05-02T01:03:04;7.85;;;4.82;;
76995;SDS011;65929;49.062;10.338;2023-05-02T01:04:19;9.07;;;5.13;;
76995;SDS011;65929;49.062;10.338;2023-05-02T01:05:27;8.50;;;5.28;;
76995;SDS011;65929;49.062;10.338;2023-05-02T01:06:38;8.63;;;5.53;;
76995;SDS011;65929;49.062;10.338;2023-05-02T01:07:59;8.48;;;5.35;;
76995;SDS011;65929;49.062;10.338;2023-05-02T01:09:18;9.95;;;5.30;;
76995;SDS011;65929;49.062;10.338;2023-05-02T01:10:33;7.90;;;4.82;;
76995;SDS011;65929;49.062;10.338;2023-05-02T01:11:49;9.10;;;5.30;;
76995;SDS011;65929;49.062;10.338;2023-05-02T01:12:57;9.35;;;5.43;;
76995;SDS011;65929;49.062;10.338;2023-05-02T01:14:02;7.18;;;5.05;;
76995;SDS011;65929;49.062;10.338;2023-05-02T01:15:06;8.02;;;5.45;;
76995;SDS011;65929;49.062;10.338;2023-05-02T01:16:11;6.72;;;4.80;;
76995;SDS011;65929;49.062;10.338;2023-05-02T01:17:13;7.93;;;4.82;;
76995;SDS011;65929;49.062;10.338;2023-05-02T01:18:17;9.15;;;5.32;;
76995;SDS011;65929;49.062;10.338;2023-05-02T01:19:24;7.85;;;5.40;;
76995;SDS011;65929;49.062;10.338;2023-05-02T01:20:28;8.40;;;5.00;;
76995;SDS011;65929;49.062;10.338;2023-05-02T01:21:32;9.27;;;5.63;;
76995;SDS011;65929;49.062;10.338;2023-05-02T01:22:33;10.38;;;5.07;;
76995;SDS011;65929;49.062;10.338;2023-05-02T01:23:42;7.68;;;5.25;;
76995;SDS011;65929;49.062;10.338;2023-05-02T01:24:53;9.20;;;5.78;;
76995;SDS011;65929;49.062;10.338;2023-05-02T01:26:04;9.48;;;5.30;;
76995;SDS011;65929;49.062;10.338;2023-05-02T01:27:27;10.85;;;5.45;;
76995;SDS011;65929;49.062;10.338;2023-05-02T01:28:43;7.00;;;5.10;;
76995;SDS011;65929;49.062;10.338;2023-05-02T01:29:57;8.68;;;5.10;;
76995;SDS011;65929;49.062;10.338;2023-05-02T01:31:00;7.82;;;5.22;;
76995;SDS011;65929;49.062;10.338;2023-05-02T01:32:03;8.10;;;5.40;;
76995;SDS011;65929;49.062;10.338;2023-05-02T01:33:07;11.13;;;5.55;;
76995;SDS011;65929;49.062;10.338;2023-05-02T01:34:10;11.73;;;6.25;;
76995;SDS011;65929;49.062;10.338;2023-05-02T01:35:12;10.25;;;5.53;;
76995;SDS011;65929;49.062;10.338;2023-05-02T01:36:15;7.65;;;5.30;;
76995;SDS011;65929;49.062;10.338;2023-05-02T01:37:19;10.13;;;5.28;;
76995;SDS011;65929;49.062;10.338;2023-05-02T01:38:23;10.50;;;5.93;;
76995;SDS011;65929;49.062;10.338;2023-05-02T01:39:26;11.05;;;5.70;;
76995;SDS011;65929;49.062;10.338;2023-05-02T01:40:27;8.48;;;5.30;;
76995;SDS011;65929;49.062;10.338;2023-05-02T01:41:30;9.90;;;5.80;;
76995;SDS011;65929;49.062;10.338;2023-05-02T01:42:31;8.10;;;5.10;;
76995;SDS011;65929;49.062;10.338;2023-05-02T01:43:33;10.70;;;5.40;;
76995;SDS011;65929;49.062;10.338;2023-05-02T01:44:38;9.43;;;5.72;;
76995;SDS011;65929;49.062;10.338;2023-05-02T01:45:42;10.93;;;5.70;;
76995;SDS011;65929;49.062;10.338;2023-05-02T01:46:44;9.23;;;5.65;;
76995;SDS011;65929;49.062;10.338;2023-05-02T01:47:47;8.27;;;6.38;;
76995;SDS011;65929;49.062;10.338;2023-05-02T01:48:49;9.50;;;5.50;;
76995;SDS011;65929;49.062;10.338;2023-05-02T01:49:52;9.88;;;5.63;;
76995;SDS011;65929;49.062;10.338;2023-05-02T01:50:53;11.18;;;6.15;;
76995;SDS011;65929;49.062;10.338;2023-05-02T01:51:58;9.75;;;5.57;;
76995;SDS011;65929;49.062;10.338;2023-05-02T01:53:04;8.57;;;5.40;;
76995;SDS011;65929;49.062;10.338;2023-05-02T01:54:08;9.88;;;5.93;;
76995;SDS011;65929;49.062;10.338;2023-05-02T01:55:11;9.50;;;5.80;;
76995;SDS011;65929;49.062;10.338;2023-05-02T01:56:14;10.85;;;5.78;;
76995;SDS011;65929;49.062;10.338;2023-05-02T01:57:18;9.10;;;6.25;;
76995;SDS011;65929;49.062;10.338;2023-05-02T01:58:19;9.73;;;5.85;;
76995;SDS011;65929;49.062;10.338;2023-05-02T01:59:23;8.75;;;5.65;;
76995;SDS011;65929;49.062;10.338;2023-05-02T02:00:28;9.65;;;5.75;;
76995;SDS011;65929;49.062;10.338;2023-05-02T02:01:31;8.57;;;5.68;;
76995;SDS011;65929;49.062;10.338;2023-05-02T02:02:34;9.63;;;6.03;;
76995;SDS011;65929;49.062;10.338;2023-05-02T02:03:36;9.27;;;6.00;;
76995;SDS011;65929;49.062;10.338;2023-05-02T02:04:37;10.07;;;6.28;;
76995;SDS011;65929;49.062;10.338;2023-05-02T02:05:39;10.52;;;6.15;;
76995;SDS011;65929;49.062;10.338;2023-05-02T02:06:43;7.65;;;5.78;;
76995;SDS011;65929;49.062;10.338;2023-05-02T02:07:47;8.88;;;5.45;;
76995;SDS011;65929;49.062;10.338;2023-05-02T02:08:48;8.80;;;5.47;;
76995;SDS011;65929;49.062;10.338;2023-05-02T02:09:50;10.60;;;5.40;;
76995;SDS011;65929;49.062;10.338;2023-05-02T02:10:53;10.50;;;5.97;;
76995;SDS011;65929;49.062;10.338;2023-05-02T02:12:00;10.25;;;5.63;;
76995;SDS011;65929;49.062;10.338;2023-05-02T02:13:05;9.10;;;5.50;;
76995;SDS011;65929;49.062;10.338;2023-05-02T02:14:14;8.60;;;5.13;;
76995;SDS011;65929;49.062;10.338;2023-05-02T02:16:30;8.32;;;4.90;;
76995;SDS011;65929;49.062;10.338;2023-05-02T02:17:38;9.48;;;5.45;;
76995;SDS011;65929;49.062;10.338;2023-05-02T02:18:42;10.85;;;6.13;;
76995;SDS011;65929;49.062;10.338;2023-05-02T02:19:45;9.68;;;5.60;;
76995;SDS011;65929;49.062;10.338;2023-05-02T02:20:47;10.15;;;5.85;;
76995;SDS011;65929;49.062;10.338;2023-05-02T02:21:50;9.85;;;6.05;;
76995;SDS011;65929;49.062;10.338;2023-05-02T02:22:55;12.88;;;6.50;;
76995;SDS011;65929;49.062;10.338;2023-05-02T02:23:58;12.80;;;6.53;;
76995;SDS011;65929;49.062;10.338;2023-05-02T02:25:03;8.98;;;5.60;;
76995;SDS011;65929;49.062;10.338;2023-05-02T02:26:07;9.50;;;6.35;;
76995;SDS011;65929;49.062;10.338;2023-05-02T02:27:09;9.70;;;6.22;;
76995;SDS011;65929;49.062;10.338;2023-05-02T02:28:10;9.77;;;5.97;;
76995;SDS011;65929;49.062;10.338;2023-05-02T02:29:11;11.25;;;5.80;;
76995;SDS011;65929;49.062;10.338;2023-05-02T02:30:12;10.30;;;6.43;;
76995;SDS011;65929;49.062;10.338;2023-05-02T02:31:13;8.77;;;5.97;;
76995;SDS011;65929;49.062;10.338;2023-05-02T02:32:15;9.27;;;5.30;;
76995;SDS011;65929;49.062;10.338;2023-05-02T02:33:16;11.50;;;6.07;;
76995;SDS011;65929;49.062;10.338;2023-05-02T02:34:18;11.45;;;5.95;;
76995;SDS011;65929;49.062;10.338;2023-05-02T02:35:20;8.23;;;5.47;;
76995;SDS011;65929;49.062;10.338;2023-05-02T02:36:23;10.63;;;6.13;;
76995;SDS011;65929;49.062;10.338;2023-05-02T02:37:30;8.90;;;5.93;;
76995;SDS011;65929;49.062;10.338;2023-05-02T02:38:34;11.77;;;5.90;;
76995;SDS011;65929;49.062;10.338;2023-05-02T02:39:45;9.30;;;5.72;;
76995;SDS011;65929;49.062;10.338;2023-05-02T02:40:55;13.18;;;6.60;;
76995;SDS011;65929;49.062;10.338;2023-05-02T02:42:02;11.60;;;6.30;;
76995;SDS011;65929;49.062;10.338;2023-05-02T02:43:11;13.32;;;6.90;;
76995;SDS011;65929;49.062;10.338;2023-05-02T02:44:23;11.80;;;6.32;;
76995;SDS011;65929;49.062;10.338;2023-05-02T02:45:29;10.82;;;6.55;;
76995;SDS011;65929;49.062;10.338;2023-05-02T02:46:39;11.80;;;7.03;;
76995;SDS011;65929;49.062;10.338;2023-05-02T02:47:49;11.25;;;6.63;;
76995;SDS011;65929;49.062;10.338;2023-05-02T02:48:56;11.93;;;6.60;;
76995;SDS011;65929;49.062;10.338;2023-05-02T02:50:12;12.70;;;6.70;;
76995;SDS011;65929;49.062;10.338;2023-05-02T02:51:19;13.00;;;6.82;;
76995;SDS011;65929;49.062;10.338;2023-05-02T02:52:30;12.18;;;6.65;;
76995;SDS011;65929;49.062;10.338;2023-05-02T02:53:39;10.68;;;6.63;;
76995;SDS011;65929;49.062;10.338;2023-05-02T02:54:54;10.38;;;6.28;;
76995;SDS011;65929;49.062;10.338;2023-05-02T02:55:59;11.90;;;6.70;;
76995;SDS011;65929;49.062;10.338;2023-05-02T02:57:05;11.57;;;6.22;;
76995;SDS011;65929;49.062;10.338;2023-05-02T02:58:17;10.40;;;6.20;;
76995;SDS011;65929;49.062;10.338;2023-05-02T02:59:25;11.43;;;6.63;;
76995;SDS011;65929;49.062;10.338;2023-05-02T03:00:28;10.90;;;6.50;;
76995;SDS011;65929;49.062;10.338;2023-05-02T03:01:31;11.93;;;6.80;;
76995;SDS011;65929;49.062;10.338;2023-05-02T03:02:35;12.13;;;6.72;;
76995;SDS011;65929;49.062;10.338;2023-05-02T03:03:40;11.05;;;6.53;;
76995;SDS011;65929;49.062;10.338;2023-05-02T03:04:42;9.98;;;6.60;;
76995;SDS011;65929;49.062;10.338;2023-05-02T03:05:50;11.23;;;6.45;;
76995;SDS011;65929;49.062;10.338;2023-05-02T03:06:51;11.43;;;6.80;;
76995;SDS011;65929;49.062;10.338;2023-05-02T03:07:53;12.27;;;6.80;;
76995;SDS011;65929;49.062;10.338;2023-05-02T03:08:54;11.63;;;6.88;;
76995;SDS011;65929;49.062;10.338;2023-05-02T03:09:55;10.80;;;6.88;;
76995;SDS011;65929;49.062;10.338;2023-05-02T03:10:57;11.60;;;6.75;;
76995;SDS011;65929;49.062;10.338;2023-05-02T03:11:57;13.32;;;7.93;;
76995;SDS011;65929;49.062;10.338;2023-05-02T03:12:58;12.88;;;6.80;;
76995;SDS011;65929;49.062;10.338;2023-05-02T03:14:00;11.48;;;6.65;;
76995;SDS011;65929;49.062;10.338;2023-05-02T03:15:04;12.68;;;6.85;;
76995;SDS011;65929;49.062;10.338;2023-05-02T03:16:26;13.80;;;7.22;;
76995;SDS011;65929;49.062;10.338;2023-05-02T03:17:32;11.57;;;6.68;;
76995;SDS011;65929;49.062;10.338;2023-05-02T03:18:32;13.90;;;7.18;;
76995;SDS011;65929;49.062;10.338;2023-05-02T03:19:35;11.38;;;6.45;;
76995;SDS011;65929;49.062;10.338;2023-05-02T03:20:36;12.40;;;7.15;;
76995;SDS011;65929;49.062;10.338;2023-05-02T03:21:37;12.43;;;6.60;;
76995;SDS011;65929;49.062;10.338;2023-05-02T03:22:38;12.35;;;6.88;;
76995;SDS011;65929;49.062;10.338;2023-05-02T03:23:48;12.65;;;7.38;;
76995;SDS011;65929;49.062;10.338;2023-05-02T03:24:49;11.68;;;7.05;;
76995;SDS011;65929;49.062;10.338;2023-05-02T03:25:50;14.32;;;6.72;;
76995;SDS011;65929;49.062;10.338;2023-05-02T03:26:53;12.65;;;6.80;;
76995;SDS011;65929;49.062;10.338;2023-05-02T03:27:55;15.45;;;6.38;;
76995;SDS011;65929;49.062;10.338;2023-05-02T03:28:57;11.73;;;7.10;;
76995;SDS011;65929;49.062;10.338;2023-05-02T03:29:58;12.02;;;7.28;;
76995;SDS011;65929;49.062;10.338;2023-05-02T03:30:59;12.43;;;6.10;;
76995;SDS011;65929;49.062;10.338;2023-05-02T03:32:00;12.23;;;7.22;;
76995;SDS011;65929;49.062;10.338;2023-05-02T03:33:01;11.27;;;6.82;;
76995;SDS011;65929;49.062;10.338;2023-05-02T03:34:03;11.45;;;6.57;;
76995;SDS011;65929;49.062;10.338;2023-05-02T03:35:07;12.13;;;7.35;;
76995;SDS011;65929;49.062;10.338;2023-05-02T03:36:11;11.23;;;6.53;;
76995;SDS011;65929;49.062;10.338;2023-05-02T03:37:12;14.43;;;7.10;;
76995;SDS011;65929;49.062;10.338;2023-05-02T03:38:13;11.85;;;6.57;;
76995;SDS011;65929;49.062;10.338;2023-05-02T03:39:14;9.90;;;6.20;;
76995;SDS011;65929;49.062;10.338;2023-05-02T03:40:15;10.63;;;6.90;;
76995;SDS011;65929;49.062;10.338;2023-05-02T03:41:20;12.27;;;7.20;;
76995;SDS011;65929;49.062;10.338;2023-05-02T03:42:22;11.10;;;6.65;;
76995;SDS011;65929;49.062;10.338;2023-05-02T03:43:23;13.10;;;7.43;;
76995;SDS011;65929;49.062;10.338;2023-05-02T03:44:24;11.60;;;6.55;;
76995;SDS011;65929;49.062;10.338;2023-05-02T03:45:25;10.90;;;7.13;;
76995;SDS011;65929;49.062;10.338;2023-05-02T03:46:26;11.60;;;6.72;;
76995;SDS011;65929;49.062;10.338;2023-05-02T03:47:27;12.23;;;7.18;;
76995;SDS011;65929;49.062;10.338;2023-05-02T03:48:31;13.98;;;7.90;;
76995;SDS011;65929;49.062;10.338;2023-05-02T03:49:32;11.70;;;7.00;;
76995;SDS011;65929;49.062;10.338;2023-05-02T03:50:35;12.05;;;7.10;;
76995;SDS011;65929;49.062;10.338;2023-05-02T03:51:36;13.88;;;7.53;;
76995;SDS011;65929;49.062;10.338;2023-05-02T03:52:37;10.65;;;7.20;;
76995;SDS011;65929;49.062;10.338;2023-05-02T03:53:38;11.68;;;6.97;;
76995;SDS011;65929;49.062;10.338;2023-05-02T03:54:39;10.35;;;6.68;;
76995;SDS011;65929;49.062;10.338;2023-05-02T03:55:42;13.10;;;7.30;;
76995;SDS011;65929;49.062;10.338;2023-05-02T03:56:44;11.27;;;6.63;;
76995;SDS011;65929;49.062;10.338;2023-05-02T03:57:46;14.23;;;6.97;;
76995;SDS011;65929;49.062;10.338;2023-05-02T03:58:47;10.82;;;6.72;;
76995;SDS011;65929;49.062;10.338;2023-05-02T03:59:48;11.77;;;6.60;;
76995;SDS011;65929;49.062;10.338;2023-05-02T04:00:49;12.20;;;7.05;;
76995;SDS011;65929;49.062;10.338;2023-05-02T04:01:52;11.43;;;6.78;;
76995;SDS011;65929;49.062;10.338;2023-05-02T04:02:53;12.50;;;6.80;;
76995;SDS011;65929;49.062;10.338;2023-05-02T04:03:54;13.88;;;7.22;;
76995;SDS011;65929;49.062;10.338;2023-05-02T04:04:55;13.60;;;7.70;;
76995;SDS011;65929;49.062;10.338;2023-05-02T04:05:57;12.77;;;7.35;;
76995;SDS011;65929;49.062;10.338;2023-05-02T04:06:58;11.40;;;7.45;;
76995;SDS011;65929;49.062;10.338;2023-05-02T04:08:00;11.82;;;6.93;;
76995;SDS011;65929;49.062;10.338;2023-05-02T04:09:02;10.45;;;6.40;;
76995;SDS011;65929;49.062;10.338;2023-05-02T04:10:03;12.38;;;6.70;;
76995;SDS011;65929;49.062;10.338;2023-05-02T04:11:15;12.10;;;6.75;;
76995;SDS011;65929;49.062;10.338;2023-05-02T04:12:16;12.20;;;7.18;;
76995;SDS011;65929;49.062;10.338;2023-05-02T04:13:17;12.13;;;6.75;;
76995;SDS011;65929;49.062;10.338;2023-05-02T04:14:18;12.27;;;7.00;;
76995;SDS011;65929;49.062;10.338;2023-05-02T04:15:19;12.13;;;7.18;;
76995;SDS011;65929;49.062;10.338;2023-05-02T04:16:20;12.32;;;7.50;;
76995;SDS011;65929;49.062;10.338;2023-05-02T04:17:21;12.23;;;7.00;;
76995;SDS011;65929;49.062;10.338;2023-05-02T04:18:22;14.27;;;7.88;;
76995;SDS011;65929;49.062;10.338;2023-05-02T04:19:23;13.68;;;8.38;;
76995;SDS011;65929;49.062;10.338;2023-05-02T04:20:24;15.32;;;7.97;;
76995;SDS011;65929;49.062;10.338;2023-05-02T04:21:26;14.80;;;7.35;;
76995;SDS011;65929;49.062;10.338;2023-05-02T04:22:27;12.85;;;7.43;;
76995;SDS011;65929;49.062;10.338;2023-05-02T04:23:28;13.07;;;8.00;;
76995;SDS011;65929;49.062;10.338;2023-05-02T04:24:30;12.43;;;7.03;;
76995;SDS011;65929;49.062;10.338;2023-05-02T04:25:31;14.05;;;7.60;;
76995;SDS011;65929;49.062;10.338;2023-05-02T04:26:32;14.48;;;7.68;;
76995;SDS011;65929;49.062;10.338;2023-05-02T04:27:33;15.85;;;8.13;;
76995;SDS011;65929;49.062;10.338;2023-05-02T04:28:34;14.93;;;8.38;;
76995;SDS011;65929;49.062;10.338;2023-05-02T04:29:35;13.82;;;8.63;;
76995;SDS011;65929;49.062;10.338;2023-05-02T04:30:36;14.73;;;8.52;;
76995;SDS011;65929;49.062;10.338;2023-05-02T04:31:37;16.10;;;8.70;;
76995;SDS011;65929;49.062;10.338;2023-05-02T04:32:38;15.82;;;8.60;;
76995;SDS011;65929;49.062;10.338;2023-05-02T04:33:39;15.43;;;9.07;;
76995;SDS011;65929;49.062;10.338;2023-05-02T04:34:40;14.45;;;8.10;;
76995;SDS011;65929;49.062;10.338;2023-05-02T04:35:41;14.80;;;8.32;;
76995;SDS011;65929;49.062;10.338;2023-05-02T04:36:45;16.08;;;8.60;;
76995;SDS011;65929;49.062;10.338;2023-05-02T04:37:46;14.25;;;7.90;;
76995;SDS011;65929;49.062;10.338;2023-05-02T04:38:47;15.40;;;8.73;;
76995;SDS011;65929;49.062;10.338;2023-05-02T04:39:48;15.32;;;8.48;;
76995;SDS011;65929;49.062;10.338;2023-05-02T04:40:49;16.48;;;9.13;;
76995;SDS011;65929;49.062;10.338;2023-05-02T04:41:51;18.17;;;8.15;;
76995;SDS011;65929;49.062;10.338;2023-05-02T04:42:52;14.90;;;8.15;;
76995;SDS011;65929;49.062;10.338;2023-05-02T04:43:53;15.63;;;7.60;;
76995;SDS011;65929;49.062;10.338;2023-05-02T04:44:54;16.52;;;8.43;;
76995;SDS011;65929;49.062;10.338;2023-05-02T04:45:55;15.70;;;8.18;;
76995;SDS011;65929;49.062;10.338;2023-05-02T04:46:57;13.60;;;8.27;;
76995;SDS011;65929;49.062;10.338;2023-05-02T04:47:58;15.75;;;7.90;;
76995;SDS011;65929;49.062;10.338;2023-05-02T04:48:59;13.88;;;7.80;;
76995;SDS011;65929;49.062;10.338;2023-05-02T04:50:01;15.50;;;7.90;;
76995;SDS011;65929;49.062;10.338;2023-05-02T04:51:02;12.82;;;7.15;;
76995;SDS011;65929;49.062;10.338;2023-05-02T04:52:04;13.38;;;7.70;;
76995;SDS011;65929;49.062;10.338;2023-05-02T04:53:05;12.50;;;7.40;;
76995;SDS011;65929;49.062;10.338;2023-05-02T04:54:06;9.85;;;6.68;;
76995;SDS011;65929;49.062;10.338;2023-05-02T04:55:07;9.25;;;6.28;;
76995;SDS011;65929;49.062;10.338;2023-05-02T04:56:08;10.10;;;6.55;;
76995;SDS011;65929;49.062;10.338;2023-05-02T04:57:10;11.05;;;6.13;;
76995;SDS011;65929;49.062;10.338;2023-05-02T04:58:11;11.27;;;6.05;;
76995;SDS011;65929;49.062;10.338;2023-05-02T04:59:12;9.73;;;6.35;;
76995;SDS011;65929;49.062;10.338;2023-05-02T05:00:13;13.25;;;6.32;;
76995;SDS011;65929;49.062;10.338;2023-05-02T05:01:14;12.38;;;7.25;;
76995;SDS011;65929;49.062;10.338;2023-05-02T05:02:16;15.38;;;7.72;;
76995;SDS011;65929;49.062;10.338;2023-05-02T05:03:16;12.30;;;7.00;;
76995;SDS011;65929;49.062;10.338;2023-05-02T05:04:17;12.85;;;8.05;;
76995;SDS011;65929;49.062;10.338;2023-05-02T05:05:18;14.35;;;7.30;;
76995;SDS011;65929;49.062;10.338;2023-05-02T05:06:20;15.30;;;8.02;;
76995;SDS011;65929;49.062;10.338;2023-05-02T05:07:23;11.70;;;7.05;;
76995;SDS011;65929;49.062;10.338;2023-05-02T05:08:24;11.00;;;6.60;;
76995;SDS011;65929;49.062;10.338;2023-05-02T05:09:26;14.32;;;8.18;;
76995;SDS011;65929;49.062;10.338;2023-05-02T05:10:27;12.30;;;7.18;;
76995;SDS011;65929;49.062;10.338;2023-05-02T05:11:28;11.65;;;6.97;;
76995;SDS011;65929;49.062;10.338;2023-05-02T05:12:30;13.13;;;8.27;;
76995;SDS011;65929;49.062;10.338;2023-05-02T05:13:31;12.55;;;7.88;;
76995;SDS011;65929;49.062;10.338;2023-05-02T05:14:32;15.70;;;8.15;;
76995;SDS011;65929;49.062;10.338;2023-05-02T05:15:33;14.85;;;8.02;;
76995;SDS011;65929;49.062;10.338;2023-05-02T05:16:34;12.73;;;7.28;;
76995;SDS011;65929;49.062;10.338;2023-05-02T05:17:36;13.50;;;7.45;;
76995;SDS011;65929;49.062;10.338;2023-05-02T05:18:38;13.13;;;7.57;;
76995;SDS011;65929;49.062;10.338;2023-05-02T05:19:42;15.40;;;8.38;;
76995;SDS011;65929;49.062;10.338;2023-05-02T05:20:43;13.23;;;7.85;;
76995;SDS011;65929;49.062;10.338;2023-05-02T05:21:43;16.33;;;7.95;;
76995;SDS011;65929;49.062;10.338;2023-05-02T05:22:46;13.10;;;7.60;;
76995;SDS011;65929;49.062;10.338;2023-05-02T05:23:47;13.68;;;8.02;;
76995;SDS011;65929;49.062;10.338;2023-05-02T05:24:51;14.05;;;7.95;;
76995;SDS011;65929;49.062;10.338;2023-05-02T05:25:52;12.85;;;7.95;;
76995;SDS011;65929;49.062;10.338;2023-05-02T05:26:53;14.32;;;7.93;;
76995;SDS011;65929;49.062;10.338;2023-05-02T05:27:54;13.10;;;8.13;;
76995;SDS011;65929;49.062;10.338;2023-05-02T05:28:55;13.73;;;7.85;;
76995;SDS011;65929;49.062;10.338;2023-05-02T05:29:56;12.77;;;7.85;;
76995;SDS011;65929;49.062;10.338;2023-05-02T05:30:57;13.60;;;8.32;;
76995;SDS011;65929;49.062;10.338;2023-05-02T05:32:03;12.88;;;7.72;;
76995;SDS011;65929;49.062;10.338;2023-05-02T05:33:05;15.57;;;8.05;;
76995;SDS011;65929;49.062;10.338;2023-05-02T05:34:06;13.68;;;8.20;;
76995;SDS011;65929;49.062;10.338;2023-05-02T05:35:10;14.88;;;8.13;;
76995;SDS011;65929;49.062;10.338;2023-05-02T05:36:11;12.60;;;7.78;;
76995;SDS011;65929;49.062;10.338;2023-05-02T05:37:14;17.85;;;8.20;;
76995;SDS011;65929;49.062;10.338;2023-05-02T05:38:16;13.25;;;8.10;;
76995;SDS011;65929;49.062;10.338;2023-05-02T05:39:17;13.70;;;7.85;;
76995;SDS011;65929;49.062;10.338;2023-05-02T05:40:18;14.48;;;8.18;;
76995;SDS011;65929;49.062;10.338;2023-05-02T05:41:20;13.82;;;8.32;;
76995;SDS011;65929;49.062;10.338;2023-05-02T05:42:22;13.65;;;8.38;;
76995;SDS011;65929;49.062;10.338;2023-05-02T05:43:23;15.10;;;8.25;;
76995;SDS011;65929;49.062;10.338;2023-05-02T05:44:25;12.40;;;7.65;;
76995;SDS011;65929;49.062;10.338;2023-05-02T05:45:26;13.52;;;8.25;;
76995;SDS011;65929;49.062;10.338;2023-05-02T05:46:27;13.63;;;8.05;;
76995;SDS011;65929;49.062;10.338;2023-05-02T05:47:28;14.00;;;8.45;;
76995;SDS011;65929;49.062;10.338;2023-05-02T05:48:29;17.23;;;8.23;;
76995;SDS011;65929;49.062;10.338;2023-05-02T05:49:30;13.60;;;8.10;;
76995;SDS011;65929;49.062;10.338;2023-05-02T05:50:31;13.18;;;8.23;;
76995;SDS011;65929;49.062;10.338;2023-05-02T05:51:32;12.80;;;7.82;;
76995;SDS011;65929;49.062;10.338;2023-05-02T05:52:34;12.73;;;8.20;;
76995;SDS011;65929;49.062;10.338;2023-05-02T05:53:38;13.20;;;7.72;;
76995;SDS011;65929;49.062;10.338;2023-05-02T05:54:38;13.13;;;7.85;;
76995;SDS011;65929;49.062;10.338;2023-05-02T05:56:50;14.25;;;8.10;;
76995;SDS011;65929;49.062;10.338;2023-05-02T05:57:51;13.63;;;8.65;;
76995;SDS011;65929;49.062;10.338;2023-05-02T05:58:52;12.55;;;7.90;;
76995;SDS011;65929;49.062;10.338;2023-05-02T05:59:53;12.65;;;7.97;;
76995;SDS011;65929;49.062;10.338;2023-05-02T06:00:55;11.88;;;7.38;;
76995;SDS011;65929;49.062;10.338;2023-05-02T06:01:55;12.15;;;7.63;;
76995;SDS011;65929;49.062;10.338;2023-05-02T06:02:58;13.90;;;7.85;;
76995;SDS011;65929;49.062;10.338;2023-05-02T06:03:59;11.15;;;7.00;;
76995;SDS011;65929;49.062;10.338;2023-05-02T06:05:00;10.95;;;7.03;;
76995;SDS011;65929;49.062;10.338;2023-05-02T06:06:01;13.80;;;7.93;;
76995;SDS011;65929;49.062;10.338;2023-05-02T06:07:02;12.88;;;7.70;;
76995;SDS011;65929;49.062;10.338;2023-05-02T06:08:03;14.43;;;7.35;;
76995;SDS011;65929;49.062;10.338;2023-05-02T06:09:05;13.25;;;7.53;;
76995;SDS011;65929;49.062;10.338;2023-05-02T06:10:07;12.18;;;7.65;;
76995;SDS011;65929;49.062;10.338;2023-05-02T06:11:09;11.07;;;7.18;;
76995;SDS011;65929;49.062;10.338;2023-05-02T06:12:12;11.82;;;7.55;;
76995;SDS011;65929;49.062;10.338;2023-05-02T06:13:15;12.05;;;7.25;;